Tiempo atmosférico en la estación meteorológica de Fuentesauco, Zamora (811 m.)



Fecha
DESCASC
Temp. máxima en grados centígrados (hora)
DESCASC
Temp. mínima en grados centígrados (hora)
DESCASC
Temp. media en grados centígrados
DESCASC
Racha de viento máxima en m/sg (hora)
DESCASC
Velocidad máxima media en intervalos de 10 minutos(hora)
DESCASC
Precipitaciones diarias en mm
DESCASC
Precipitaciones de 00:00 a 06:00 en mm
DESCASC
Precipitaciones de 06:00 a 12:00 en mm
DESCASC
Precipitaciones de 12:00 a 18:00 en mm
DESCASC
Precipitaciones de 18:00 a 24:00 en mm
DESCASC
22-11-2020 16.1 (14:50) 1.4 (07:10) 8.8 3.33 (13:30) 2.22 (15:10) 0 0 0 0 0
21-11-2020 12.7 (16:10) 0.1 (08:00) 6.4 3.61 (00:20) 3.06 (00:20) 0 0 0 0 0
20-11-2020 12 (15:40) 3.1 (23:59) 7.5 7.5 (16:00) 5.56 (16:00) 0 0 0 0 0
19-11-2020 16.7 (15:50) 5.8 (00:00) 11.3 4.72 (13:40) 3.61 (23:10) 0 0 0 0 0
18-11-2020 20.3 (14:20) 6.5 (00:00) 13.4 3.89 (00:50) 2.78 (15:00) 0 0 0 0 0
17-11-2020 15.4 (16:10) 3.3 (00:00) 9.3 2.78 (14:00) 1.67 (14:00) 0.2 0 0.2 0 0
16-11-2020 15.8 (16:30) 6.8 (00:00) 11.3 4.44 (03:10) 2.78 (00:10) 0.4 0.4 0 0 0
15-11-2020 17.1 (14:10) 10.8 (00:00) 14 17.78 (13:40) 11.11 (15:00) 0 0 0 0 0
14-11-2020 16 (14:10) 7 (00:00) 11.5 8.33 (23:10) 6.11 (20:30) 0 0 0 0 0
13-11-2020 14.4 (15:30) 5.8 (00:00) 10.1 4.17 (14:30) 3.33 (17:20) 0.2 0.2 0 0 0
12-11-2020 13.3 (16:40) 6.2 (00:00) 9.8 4.17 (17:40) 2.78 (16:30) 0 0 0 0 0
11-11-2020 10.6 (16:40) 5.6 (00:00) 8.1 5.83 (20:20) 5 (20:20) 0.2 0.2 0 0 0
10-11-2020 9.6 (16:50) 5.7 (00:00) 7.7 4.17 (17:20) 2.78 (18:20) 0 0 0 0 0
09-11-2020 14.2 (15:00) 7.6 (00:00) 10.9 7.78 (12:10) 5.83 (12:00) 3.4 3.2 0.2 0 0
08-11-2020 15.1 (12:20) 8.7 (00:00) 11.9 14.17 (12:20) 10.83 (13:00) 19.8 0 0 4.6 15.2
07-11-2020 14.3 (14:10) 9 (00:00) 11.7 11.67 (16:10) 8.61 (16:30) 1.2 1.2 0 0 0
06-11-2020 16.6 (14:40) 8.7 (00:00) 12.7 20.28 (13:40) 12.5 (14:10) 12.6 0 0 0 12.6
05-11-2020 13.2 (15:30) 5.6 (00:00) 9.4 11.39 (15:30) 7.78 (05:10) 8.8 0 0.8 1.2 6.8
04-11-2020 8.5 (13:40) 1.3 (00:00) 4.9 11.39 (13:40) 7.78 (21:20) 2.6 0 0 1.8 0.8
03-11-2020 14.5 (15:20) 4.4 (00:00) 9.5 11.94 (17:40) 7.5 (17:40) 1.2 1.2 0 0 0
02-11-2020 18.4 (14:30) 11 (00:00) 14.7 7.22 (11:40) 5.28 (11:40) 0 0 0 0 0
01-11-2020 20.3 (15:00) 9.1 (00:00) 14.7 7.78 (13:40) 4.72 (14:10) 0 0 0 0 0
31-10-2020 20.6 (15:50) 7.6 (00:00) 14.1 6.39 (13:30) 4.44 (12:40) 0 0 0 0 0
30-10-2020 20.3 (17:00) 3.7 (00:00) 12 4.17 (16:10) 2.5 (16:20) 0.2 0 0.2 0 0
29-10-2020 17.4 (16:30) 5.5 (00:00) 11.4 4.72 (12:10) 2.22 (08:40) 0 0 0 0 0
28-10-2020 16 (15:10) 7.5 (00:00) 11.8 8.89 (16:10) 6.39 (00:30) 0.2 0 0.2 0 0
27-10-2020 11.2 (14:30) 5 (00:00) 8.1 10.28 (13:10) 6.94 (13:00) 0.4 0 0 0.4 0

Gráficas

Temp. máximas Temp. mínimas Temp. medias Precipitaciones Rachas de viento máximas Velocidades máximas media en intervalos de 10 minutos

Datos horarios

Fecha y hora oficial Temperatura (ºC) Velocidad del viento (km/h) Dirección del viento Racha (km/h) Dirección de racha Precipitación (mm) Presión (hPa) Tendencia (hPa) Humedad (%)
2020-11-25 23:00:00 8.7 20 Sudeste 31 Sudeste 0 -- -- 84
2020-11-25 22:00:00 8.5 22 Sudeste 38 Sudeste 0 -- -- 84
2020-11-25 21:00:00 9 28 Sudeste 42 Sudeste 0 -- -- 80
2020-11-25 20:00:00 8.9 21 Sudeste 34 Sudeste 0 -- -- 82
2020-11-25 19:00:00 8.7 21 Sudeste 32 Sudeste 0 -- -- 81
2020-11-25 18:00:00 8.8 19 Sudeste 28 Sudeste 0 -- -- 81
2020-11-25 17:00:00 8.1 5 Este 13 Este 0 -- -- 93
2020-11-25 16:00:00 7.4 4 Este 7 Este 0 -- -- 93
2020-11-25 15:00:00 7.2 3 Nordeste 5 Este 0 -- -- 93
2020-11-25 14:00:00 7 0 Calma 5 Este 0.2 -- -- 92
2020-11-25 13:00:00 6.6 4 Este 12 Este 0.6 -- -- 91
2020-11-25 12:00:00 6 0 Calma 8 Este 0.4 -- -- 91
2020-11-25 11:00:00 5.8 6 Este 13 Este 0.2 -- -- 90
2020-11-25 10:00:00 5.8 5 Este 11 Este 0.4 -- -- 89
2020-11-25 09:00:00 5.4 8 Sudeste 13 Sudeste 1 -- -- 91
2020-11-25 08:00:00 4.5 9 Sudeste 14 Sudeste 0.2 -- -- 92
2020-11-25 07:00:00 5.9 4 Sudeste 11 Sur 0 -- -- 91
2020-11-25 06:00:00 4.8 3 Sur 22 Sur 0 -- -- 93
2020-11-25 05:00:00 4.9 18 Sur 25 Sur 0 -- -- 92
2020-11-25 04:00:00 4.9 17 Sur 22 Sur 0 -- -- 93
2020-11-25 03:00:00 5.2 17 Sur 25 Sur 0 -- -- 94
2020-11-25 02:00:00 5.4 17 Sur 27 Sur 0 -- -- 93
2020-11-25 01:00:00 5 15 Sur 23 Sudoeste 0 -- -- 92
2020-11-25 00:00:00 4.2 4 Sudoeste 13 Sudoeste 0 -- -- 92
2020-11-24 23:00:00 4.6 5 Sudoeste 13 Sudoeste 0 -- -- 90
2020-11-24 22:00:00 4.8 8 Sudoeste 15 Sudoeste 0 -- -- 88
2020-11-24 21:00:00 5.6 9 Sudoeste 13 Sudoeste 0 -- -- 87
2020-11-24 20:00:00 6.5 4 Sur 8 Sudoeste 0 -- -- 85
2020-11-24 19:00:00 8.3 0 Calma 8 Oeste 0 -- -- 80
2020-11-24 18:00:00 10.6 6 Oeste 15 Sudoeste 0 -- -- 71
2020-11-24 17:00:00 12 10 Oeste 18 Oeste 0 -- -- 66
2020-11-24 16:00:00 11.4 14 Oeste 22 Oeste 0 -- -- 68
2020-11-24 15:00:00 11.9 10 Oeste 19 Sudoeste 0 -- -- 67
2020-11-24 14:00:00 12.1 11 Oeste 26 Oeste 0 -- -- 67
2020-11-24 13:00:00 11.8 20 Oeste 29 Sudoeste 0 -- -- 63
2020-11-24 12:00:00 11.2 15 Oeste 25 Oeste 0 -- -- 68
2020-11-24 11:00:00 10.2 13 Sudoeste 20 Sudoeste 0 -- -- 71
2020-11-24 10:00:00 6.2 0 Calma 5 Sur 0 -- -- 86
2020-11-24 09:00:00 3.4 3 Sudoeste 8 Sudoeste 0 -- -- 88
2020-11-24 08:00:00 3.7 4 Sudoeste 7 Sudoeste 0 -- -- 86
2020-11-24 07:00:00 3.6 2 Sudoeste 4 Sudoeste 0 -- -- 84
2020-11-24 06:00:00 3.8 0 Calma 3 Oeste 0 -- -- 83
2020-11-24 05:00:00 3.3 0 Calma 4 Sudoeste 0 -- -- 81
2020-11-24 04:00:00 2.7 0 Calma 2 Sudoeste 0 -- -- 83
2020-11-24 03:00:00 2.6 0 Calma -- -- 0 -- -- 88
2020-11-24 02:00:00 2.5 0 Calma 2 Sudoeste 0 -- -- 87
2020-11-24 01:00:00 3.2 0 Calma 2 Sudoeste 0 -- -- 87
2020-11-24 00:00:00 3.2 0 Calma 0 Calma 0 -- -- 88
2020-11-23 23:00:00 4 0 Calma 2 Sudoeste 0 -- -- 85
2020-11-23 22:00:00 4.5 0 Calma -- -- 0 -- -- 82
2020-11-23 21:00:00 4.8 0 Calma -- -- 0 -- -- 82
2020-11-23 20:00:00 5.9 0 Calma 2 Sudoeste 0 -- -- 77
2020-11-23 19:00:00 7.6 0 Calma 4 Nordeste 0 -- -- 69
2020-11-23 18:00:00 9.7 4 Nordeste 5 Nordeste 0 -- -- 64
2020-11-23 17:00:00 12.7 5 Este 11 Este 0 -- -- 47
2020-11-23 16:00:00 13 9 Nordeste 15 Este 0 -- -- 42
2020-11-23 15:00:00 13 9 Nordeste 14 Nordeste 0 -- -- 44
2020-11-23 14:00:00 11.7 9 Nordeste 15 Este 0 -- -- 58
2020-11-23 13:00:00 10.1 9 Nordeste 14 Norte 0 -- -- 66
2020-11-23 12:00:00 8.5 7 Nordeste 12 Norte 0 -- -- 73
2020-11-23 11:00:00 7 2 Nordeste 4 Nordeste 0 -- -- 79
2020-11-23 10:00:00 4.4 0 Calma 2 Norte 0 -- -- 93
2020-11-23 09:00:00 1.1 0 Calma 0 Calma 0 -- -- 95
2020-11-23 08:00:00 1 0 Calma 2 Este 0 -- -- 94
2020-11-23 07:00:00 2 0 Calma 4 Nordeste 0 -- -- 91
2020-11-23 06:00:00 2.1 0 Calma -- -- 0 -- -- 93
2020-11-23 05:00:00 1.9 0 Calma -- -- 0 -- -- 91
2020-11-23 04:00:00 2.5 0 Calma -- -- 0 -- -- 92
2020-11-23 03:00:00 3 0 Calma -- -- 0 -- -- 87
2020-11-23 02:00:00 4.1 0 Calma 2 Nordeste 0 -- -- 88
2020-11-23 01:00:00 4.1 0 Calma 2 Sudoeste 0 -- -- 87
2020-11-23 00:00:00 5.9 0 Calma 5 Sur 0 -- -- 79
2020-11-22 23:00:00 4.8 0 Calma 2 Sudoeste 0 -- -- 84
2020-11-22 22:00:00 5.2 0 Calma 2 Sudoeste 0 -- -- 86
2020-11-22 21:00:00 6.2 0 Calma 2 Sur 0 -- -- 83
2020-11-22 20:00:00 7.5 2 Sudoeste 2 Sudoeste 0 -- -- 79
2020-11-22 19:00:00 8.9 0 Calma 5 Nordeste 0 -- -- 74
2020-11-22 18:00:00 11.3 4 Nordeste 7 Nordeste 0 -- -- 67
2020-11-22 17:00:00 14.4 6 Nordeste 9 Nordeste 0 -- -- 55
2020-11-22 16:00:00 15.1 5 Nordeste 11 Norte 0 -- -- 52
2020-11-22 15:00:00 15.7 4 Nordeste 11 Noroeste 0 -- -- 52
2020-11-22 14:00:00 15.5 5 Oeste 12 Oeste 0 -- -- 51
2020-11-22 13:00:00 14.1 2 Norte 9 Noroeste 0 -- -- 51
2020-11-22 12:00:00 12.8 0 Calma 3 Noroeste 0 -- -- 54
2020-11-22 11:00:00 10.7 0 Calma 2 Norte 0 -- -- 56
2020-11-22 10:00:00 7.2 0 Calma 2 Sudoeste 0 -- -- 76
2020-11-22 09:00:00 2.7 0 Calma 2 Sudoeste 0 -- -- 88
2020-11-22 08:00:00 1.5 0 Calma 2 Sur 0 -- -- 88
2020-11-22 07:00:00 1.5 0 Calma 3 Sudoeste 0 -- -- 87
2020-11-22 06:00:00 2 0 Calma 5 Nordeste 0 -- -- 82
2020-11-22 05:00:00 3.4 2 Norte 6 Sudoeste 0 -- -- 77
2020-11-22 04:00:00 4.3 6 Sudoeste 9 Sudoeste 0 -- -- 73
2020-11-22 03:00:00 3.6 4 Sudoeste 6 Sudoeste 0 -- -- 75
2020-11-22 02:00:00 3.6 0 Calma 2 Sur 0 -- -- 74
2020-11-22 01:00:00 3.9 0 Calma 2 Sudoeste 0 -- -- 75
2020-11-22 00:00:00 4 3 Sur 3 Sudoeste 0 -- -- 73
2020-11-21 23:00:00 4.1 0 Calma 0 Calma 0 -- -- 76
2020-11-21 22:00:00 4.8 0 Calma 3 Sudoeste 0 -- -- 72
2020-11-21 21:00:00 5.4 0 Calma 3 Sudoeste 0 -- -- 68
2020-11-21 20:00:00 6.5 2 Sudoeste 4 Sudoeste 0 -- -- 66
2020-11-21 19:00:00 7.3 0 Calma 3 Nordeste 0 -- -- 65
2020-11-21 18:00:00 10.1 3 Nordeste 6 Nordeste 0 -- -- 58
2020-11-21 17:00:00 12.3 5 Nordeste 10 Norte 0 -- -- 42
2020-11-21 16:00:00 12.6 4 Norte 8 Nordeste 0 -- -- 41
2020-11-21 15:00:00 12.5 5 Norte 8 Norte 0 -- -- 43
2020-11-21 14:00:00 10.9 4 Nordeste 9 Este 0 -- -- 49
2020-11-21 13:00:00 9.3 3 Nordeste 10 Nordeste 0 -- -- 55
2020-11-21 12:00:00 7.8 5 Nordeste 12 Nordeste 0 -- -- 60
2020-11-21 11:00:00 5.6 9 Nordeste 13 Nordeste 0 -- -- 73
2020-11-21 10:00:00 3.8 7 Norte 9 Norte 0 -- -- 81
2020-11-21 09:00:00 1.1 5 Norte 8 Norte 0 -- -- 91
2020-11-21 08:00:00 0.1 3 Norte 7 Norte 0 -- -- 91
2020-11-21 07:00:00 0.5 0 Calma 4 Nordeste 0 -- -- 90
2020-11-21 06:00:00 1.4 3 Nordeste 8 Norte 0 -- -- 89
2020-11-21 05:00:00 1.4 6 Nordeste 9 Norte 0 -- -- 90
2020-11-21 04:00:00 2.1 9 Norte 13 Nordeste 0 -- -- 90
2020-11-21 03:00:00 2.1 4 Norte 8 Nordeste 0 -- -- 92
2020-11-21 02:00:00 2.7 7 Nordeste 13 Nordeste 0 -- -- 90
2020-11-21 01:00:00 3.2 9 Nordeste 13 Nordeste 0 -- -- 91
2020-11-21 00:00:00 3.1 7 Nordeste 12 Nordeste 0 -- -- 88
2020-11-20 23:00:00 4.7 11 Nordeste 18 Nordeste 0 -- -- 82
2020-11-20 22:00:00 5.2 15 Nordeste 18 Nordeste 0 -- -- 83
2020-11-20 21:00:00 6.3 13 Nordeste 23 Nordeste 0 -- -- 77
2020-11-20 20:00:00 7 16 Nordeste 22 Nordeste 0 -- -- 75
2020-11-20 19:00:00 7.9 14 Nordeste 20 Nordeste 0 -- -- 73
2020-11-20 18:00:00 9.5 13 Nordeste 17 Nordeste 0 -- -- 67
2020-11-20 17:00:00 11.6 13 Nordeste 25 Nordeste 0 -- -- 57
2020-11-20 16:00:00 12 20 Nordeste 27 Nordeste 0 -- -- 52
2020-11-20 15:00:00 11.5 18 Nordeste 26 Nordeste 0 -- -- 58
2020-11-20 14:00:00 10.4 16 Nordeste 26 Nordeste 0 -- -- 62
2020-11-20 13:00:00 9 14 Nordeste 22 Nordeste 0 -- -- 72
2020-11-20 12:00:00 7.8 14 Nordeste 24 Nordeste 0 -- -- 81
2020-11-20 11:00:00 6.6 15 Nordeste 22 Nordeste 0 -- -- 87
2020-11-20 10:00:00 5.4 11 Nordeste 18 Nordeste 0 -- -- 91
2020-11-20 09:00:00 3.7 13 Nordeste 15 Nordeste 0 -- -- 96
2020-11-20 08:00:00 3.4 7 Nordeste 12 Nordeste 0 -- -- 95
2020-11-20 07:00:00 4.2 9 Nordeste 12 Nordeste 0 -- -- 95
2020-11-20 06:00:00 5.1 6 Nordeste 10 Este 0 -- -- 96
2020-11-20 05:00:00 4.6 7 Nordeste 15 Este 0 -- -- 95
2020-11-20 04:00:00 6.4 15 Nordeste 24 Nordeste 0 -- -- 91
2020-11-20 03:00:00 7 12 Nordeste 17 Este 0 -- -- 91
2020-11-20 02:00:00 6.1 8 Nordeste 17 Nordeste 0 -- -- 93
2020-11-20 01:00:00 7.2 7 Este 14 Este 0 -- -- 91
2020-11-20 00:00:00 8.2 4 Este 14 Nordeste 0 -- -- 92
2020-11-19 23:00:00 8.3 11 Nordeste 14 Este 0 -- -- 93
2020-11-19 22:00:00 9.5 10 Este 15 Este 0 -- -- 92
2020-11-19 21:00:00 9.4 0 Calma 3 Sudoeste 0 -- -- 93
2020-11-19 20:00:00 10.3 2 Sudoeste 8 Nordeste 0 -- -- 92
2020-11-19 19:00:00 11.8 6 Nordeste 12 Nordeste 0 -- -- 90
2020-11-19 18:00:00 13.6 9 Nordeste 10 Norte 0 -- -- 81
2020-11-19 17:00:00 16 6 Nordeste 10 Nordeste 0 -- -- 70
2020-11-19 16:00:00 16.7 5 Nordeste 10 Nordeste 0 -- -- 67
2020-11-19 15:00:00 16 8 Nordeste 14 Norte 0 -- -- 73
2020-11-19 14:00:00 15.2 10 Nordeste 17 Nordeste 0 -- -- 76
2020-11-19 13:00:00 14.2 9 Este 14 Nordeste 0 -- -- 77
2020-11-19 12:00:00 13.4 6 Este 11 Sudeste 0 -- -- 83
2020-11-19 11:00:00 10.9 6 Nordeste 10 Nordeste 0 -- -- 98
2020-11-19 10:00:00 7.6 0 Calma 2 Oeste 0 -- -- 99
2020-11-19 09:00:00 5.8 0 Calma 8 Nordeste 0 -- -- 98
2020-11-19 08:00:00 6.7 4 Nordeste 14 Norte 0 -- -- 98
2020-11-19 07:00:00 7.3 0 Calma 4 Norte 0 -- -- 98
2020-11-19 06:00:00 6.5 0 Calma 3 Sudoeste 0 -- -- 97
2020-11-19 05:00:00 7.1 0 Calma 3 Sudoeste 0 -- -- 97
2020-11-19 04:00:00 7.5 0 Calma 2 Sudoeste 0 -- -- 97
2020-11-19 03:00:00 7.8 0 Calma 2 Oeste 0 -- -- 96
2020-11-19 02:00:00 8.5 2 Norte 6 Noroeste 0 -- -- 93
2020-11-19 01:00:00 8.9 0 Calma 6 Norte 0 -- -- 89
2020-11-19 00:00:00 9.7 0 Calma 3 Este 0 -- -- 88
2020-11-18 23:00:00 10.1 0 Calma 3 Sudoeste 0 -- -- 89
2020-11-18 22:00:00 10.1 0 Calma 3 Sur 0 -- -- 90
2020-11-18 21:00:00 10.8 2 Sudoeste 3 Sur 0 -- -- 89
2020-11-18 20:00:00 12 0 Calma 5 Norte 0 -- -- 87
2020-11-18 19:00:00 12.7 0 Calma 6 Norte 0 -- -- 83
2020-11-18 18:00:00 14.5 4 Norte 7 Nordeste 0 -- -- 77
2020-11-18 17:00:00 17.3 7 Nordeste 11 Norte 0 -- -- 68
2020-11-18 16:00:00 18.3 8 Nordeste 13 Norte 0 -- -- 61
2020-11-18 15:00:00 18.9 10 Nordeste 14 Norte 0 -- -- 58
2020-11-18 14:00:00 20 2 Oeste 10 Norte 0 -- -- 50
2020-11-18 13:00:00 18.2 2 Este 8 Nordeste 0 -- -- 61
2020-11-18 12:00:00 15.8 3 Norte 6 Norte 0 -- -- 75
2020-11-18 11:00:00 14 0 Calma 3 Norte 0 -- -- 81
2020-11-18 10:00:00 9.6 0 Calma 3 Sur 0 -- -- 92
2020-11-18 09:00:00 6.8 0 Calma 8 Este 0 -- -- 94
2020-11-18 08:00:00 7.1 0 Calma 5 Sudoeste 0 -- -- 92
2020-11-18 07:00:00 7.5 4 Sudoeste 6 Sudoeste 0 -- -- 92
2020-11-18 06:00:00 7.8 4 Sur 7 Sur 0 -- -- 86
2020-11-18 05:00:00 8.9 6 Sur 8 Sur 0 -- -- 82
2020-11-18 04:00:00 7.7 0 Calma 6 Sudoeste 0 -- -- 82
2020-11-18 03:00:00 9.1 4 Sudoeste 13 Sudoeste 0 -- -- 77
2020-11-18 02:00:00 9.4 4 Sudoeste 14 Sudoeste 0 -- -- 76
2020-11-18 01:00:00 9.8 7 Sudoeste 14 Sudoeste 0 -- -- 70
2020-11-18 00:00:00 9.5 3 Sur 8 Sudoeste 0 -- -- 68
2020-11-17 23:00:00 9.3 4 Sudoeste 8 Sudoeste 0 -- -- 73
2020-11-17 22:00:00 10.1 4 Sudoeste 9 Sudoeste 0 -- -- 70
2020-11-17 21:00:00 11 4 Sudoeste 7 Sudoeste 0 -- -- 80
2020-11-17 20:00:00 10.5 0 Calma 5 Sudeste 0 -- -- 90
2020-11-17 19:00:00 12.2 2 Sudeste 4 Sudeste 0 -- -- 86
2020-11-17 18:00:00 14 3 Sudeste 5 Este 0 -- -- 80
2020-11-17 17:00:00 15 4 Este 8 Sudeste 0 -- -- 77
2020-11-17 16:00:00 15.3 3 Este 9 Nordeste 0 -- -- 76
2020-11-17 15:00:00 13.9 3 Este 9 Sudeste 0 -- -- 80
2020-11-17 14:00:00 11.9 6 Nordeste 10 Nordeste 0 -- -- 92
2020-11-17 13:00:00 9.6 4 Nordeste 9 Norte 0 -- -- 98
2020-11-17 12:00:00 8.5 3 Nordeste 6 Este 0 -- -- 99
2020-11-17 11:00:00 7.2 3 Norte 4 Noroeste 0 -- -- 99
2020-11-17 10:00:00 5.4 0 Calma 2 Sudeste 0 -- -- 99
2020-11-17 09:00:00 4.1 0 Calma 3 Nordeste 0.2 -- -- 98
2020-11-17 08:00:00 3.3 0 Calma 3 Norte 0 -- -- 98
2020-11-17 07:00:00 3.9 0 Calma 2 Sudoeste 0 -- -- 97
2020-11-17 06:00:00 4.6 0 Calma 3 Sudoeste 0 -- -- 98
2020-11-17 05:00:00 5.1 0 Calma 0 Calma 0 -- -- 97
2020-11-17 04:00:00 5.5 0 Calma 2 Sudoeste 0 -- -- 96
2020-11-17 03:00:00 5.8 0 Calma 0 Calma 0 -- -- 96
2020-11-17 02:00:00 6.8 0 Calma 4 Sudeste 0 -- -- 96
2020-11-17 01:00:00 6.4 0 Calma 2 Sudoeste 0 -- -- 95
2020-11-17 00:00:00 6.8 0 Calma 3 Sudoeste 0 -- -- 95
2020-11-16 23:00:00 7.3 0 Calma 0 Calma 0 -- -- 95
2020-11-16 22:00:00 7.9 0 Calma 5 Sudoeste 0 -- -- 94
2020-11-16 21:00:00 8.3 0 Calma 4 Sudoeste 0 -- -- 92
2020-11-16 20:00:00 9.6 0 Calma 10 Nordeste 0 -- -- 89
2020-11-16 19:00:00 10.6 8 Nordeste 8 Nordeste 0 -- -- 87
2020-11-16 18:00:00 12.9 3 Nordeste 7 Norte 0 -- -- 80
2020-11-16 17:00:00 14.7 6 Norte 10 Norte 0 -- -- 68
2020-11-16 16:00:00 15.3 3 Norte 11 Oeste 0 -- -- 65
2020-11-16 15:00:00 15 7 Norte 12 Norte 0 -- -- 66
2020-11-16 14:00:00 14.5 3 Nordeste 15 Noroeste 0 -- -- 69
2020-11-16 13:00:00 14.2 3 Noroeste 13 Noroeste 0 -- -- 70
2020-11-16 12:00:00 12.5 6 Norte 10 Noroeste 0 -- -- 86
2020-11-16 11:00:00 11.4 4 Norte 8 Norte 0 -- -- 97
2020-11-16 10:00:00 10.8 4 Norte 10 Norte 0 -- -- 98
2020-11-16 09:00:00 9.4 0 Calma 7 Sudoeste 0 -- -- 99
2020-11-16 08:00:00 8.7 3 Noroeste 7 Sudoeste 0 -- -- 97
2020-11-16 07:00:00 9.3 4 Oeste 6 Sudoeste 0 -- -- 96
2020-11-16 06:00:00 9.8 7 Oeste 10 Sudoeste 0 -- -- 96
2020-11-16 05:00:00 11.1 5 Oeste 12 Oeste 0 -- -- 95
2020-11-16 04:00:00 12.1 6 Oeste 16 Sudoeste 0 -- -- 96
2020-11-16 03:00:00 12.5 9 Oeste 13 Oeste 0 -- -- 96
2020-11-16 02:00:00 12.8 5 Sudoeste 11 Oeste 0 -- -- 96
2020-11-16 01:00:00 12.9 7 Oeste 15 Oeste 0.4 -- -- 95
2020-11-16 00:00:00 13.4 10 Oeste 27 Oeste 0 -- -- 92
2020-11-15 23:00:00 13.7 17 Sudoeste 25 Oeste 0 -- -- 90
2020-11-15 22:00:00 13.6 18 Sudoeste 32 Oeste 0 -- -- 90
2020-11-15 21:00:00 13.4 22 Sudoeste 35 Sudoeste 0 -- -- 90
2020-11-15 20:00:00 13.7 23 Sudoeste 35 Sudoeste 0 -- -- 89
2020-11-15 19:00:00 14.2 22 Sudoeste 36 Sudoeste 0 -- -- 87
2020-11-15 18:00:00 15 26 Sudoeste 35 Sudoeste 0 -- -- 83
2020-11-15 17:00:00 15.7 25 Sudoeste 43 Sudoeste 0 -- -- 81
2020-11-15 16:00:00 16.1 32 Sudoeste 47 Sudoeste 0 -- -- 79
2020-11-15 15:00:00 16.7 40 Sudoeste 52 Sudoeste 0 -- -- 76
2020-11-15 14:00:00 16.7 31 Sudoeste 64 Sudoeste 0 -- -- 79
2020-11-15 13:00:00 15.9 36 Sudoeste 49 Sudoeste 0 -- -- 82
2020-11-15 12:00:00 15.2 27 Sudoeste 40 Oeste 0 -- -- 85
2020-11-15 11:00:00 14.6 28 Sudoeste 39 Sudoeste 0 -- -- 87
2020-11-15 10:00:00 13.9 26 Sudoeste 37 Sudoeste 0 -- -- 89
2020-11-15 09:00:00 13.2 27 Sudoeste 39 Sudoeste 0 -- -- 91
2020-11-15 08:00:00 11.4 15 Sudoeste 24 Sudoeste 0 -- -- 94
2020-11-15 07:00:00 11.4 17 Sudoeste 27 Sudoeste 0 -- -- 94
2020-11-15 06:00:00 11.9 20 Sudoeste 32 Sur 0 -- -- 93
2020-11-15 05:00:00 12.4 20 Sudoeste 34 Sudoeste 0 -- -- 92
2020-11-15 04:00:00 12 29 Sudoeste 48 Sudoeste 0 -- -- 92
2020-11-15 03:00:00 11.7 29 Sudoeste 40 Sur 0 -- -- 92
2020-11-15 02:00:00 11.3 23 Sudoeste 38 Sur 0 -- -- 93
2020-11-15 01:00:00 11.5 23 Sudoeste 30 Sudoeste 0 -- -- 92
2020-11-15 00:00:00 10.8 15 Sur 30 Sudoeste 0 -- -- 92
2020-11-14 23:00:00 10.6 20 Sur 26 Sur 0 -- -- 93
2020-11-14 22:00:00 10.6 12 Sur 28 Sudoeste 0 -- -- 92
2020-11-14 21:00:00 11.5 18 Sudoeste 27 Sudoeste 0 -- -- 91
2020-11-14 20:00:00 11.9 17 Sudoeste 23 Sudoeste 0 -- -- 89
2020-11-14 19:00:00 12 12 Sudoeste 19 Sudoeste 0 -- -- 90
2020-11-14 18:00:00 13.7 15 Sudoeste 25 Sudoeste 0 -- -- 85
2020-11-14 17:00:00 14.5 12 Sudoeste 19 Sudoeste 0 -- -- 82
2020-11-14 16:00:00 14.9 15 Sudoeste 20 Sudoeste 0 -- -- 79
2020-11-14 15:00:00 15.8 9 Sudoeste 18 Sudoeste 0 -- -- 73
2020-11-14 14:00:00 15.8 11 Sudoeste 26 Sudoeste 0 -- -- 74
2020-11-14 13:00:00 15.3 16 Sudoeste 23 Sudoeste 0 -- -- 76
2020-11-14 12:00:00 14.3 13 Sur 20 Sur 0 -- -- 79
2020-11-14 11:00:00 12.5 14 Sur 19 Sur 0 -- -- 83
2020-11-14 10:00:00 10.4 11 Sur 18 Sudeste 0 -- -- 85
2020-11-14 09:00:00 9.7 14 Sur 16 Sur 0 -- -- 84
2020-11-14 08:00:00 8.3 4 Sudeste 8 Sur 0 -- -- 93
2020-11-14 07:00:00 7.2 3 Sur 9 Sur 0 -- -- 95
2020-11-14 06:00:00 7.6 2 Sur 7 Sudeste 0 -- -- 93
2020-11-14 05:00:00 8.4 2 Sudeste 8 Sudeste 0 -- -- 93
2020-11-14 04:00:00 8.2 3 Sudeste 6 Sur 0 -- -- 93
2020-11-14 03:00:00 8.5 2 Sur 4 Sudoeste 0 -- -- 94
2020-11-14 02:00:00 8.7 2 Sudoeste 5 Sudoeste 0 -- -- 95
2020-11-14 01:00:00 8.6 2 Sudoeste 6 Sudoeste 0 -- -- 97
2020-11-14 00:00:00 8.5 3 Sudoeste 5 Sur 0 -- -- 98
2020-11-13 23:00:00 8.6 0 Calma 8 Sudeste 0 -- -- 98
2020-11-13 22:00:00 7.4 0 Calma -- -- 0 -- -- 98
2020-11-13 21:00:00 7.1 0 Calma 3 Noroeste 0 -- -- 97
2020-11-13 20:00:00 7.9 0 Calma 7 Nordeste 0 -- -- 97
2020-11-13 19:00:00 8.9 5 Nordeste 13 Nordeste 0 -- -- 95
2020-11-13 18:00:00 10.8 7 Nordeste 14 Nordeste 0 -- -- 91
2020-11-13 17:00:00 13.7 0 Calma 9 Este 0 -- -- 70
2020-11-13 16:00:00 13.8 4 Sudeste 10 Sudeste 0 -- -- 71
2020-11-13 15:00:00 13.8 3 Sudeste 15 Este 0 -- -- 76
2020-11-13 14:00:00 12.7 6 Este 12 Este 0 -- -- 84
2020-11-13 13:00:00 9.9 4 Este 12 Este 0 -- -- 100
2020-11-13 12:00:00 8.4 5 Este 10 Este 0 -- -- 99
2020-11-13 11:00:00 7.4 5 Sudeste 9 Sudeste 0 -- -- 99
2020-11-13 10:00:00 6.4 0 Calma 3 Este 0 -- -- 100
2020-11-13 09:00:00 6 0 Calma 7 Norte 0 -- -- 99
2020-11-13 08:00:00 5.9 6 Norte 8 Norte 0 -- -- 99
2020-11-13 07:00:00 6.7 0 Calma 3 Noroeste 0 -- -- 99
2020-11-13 06:00:00 6.8 0 Calma 2 Sudoeste 0.2 -- -- 99
2020-11-13 05:00:00 6.9 0 Calma 3 Oeste 0 -- -- 99
2020-11-13 04:00:00 7.2 0 Calma 10 Noroeste 0 -- -- 98
2020-11-13 03:00:00 7 2 Norte 4 Norte 0 -- -- 99
2020-11-13 02:00:00 7.5 0 Calma 4 Sudoeste 0 -- -- 98
2020-11-13 01:00:00 7.6 3 Sudoeste 4 Sudoeste 0 -- -- 98
2020-11-13 00:00:00 7.9 2 Sudoeste 7 Noroeste 0 -- -- 98
2020-11-12 23:00:00 8.2 6 Noroeste 15 Norte 0 -- -- 98
2020-11-12 22:00:00 8.4 9 Norte 13 Norte 0 -- -- 97
2020-11-12 21:00:00 8.6 5 Norte 8 Noroeste 0 -- -- 96
2020-11-12 20:00:00 8.9 3 Norte 8 Noroeste 0 -- -- 96
2020-11-12 19:00:00 9.4 4 Norte 10 Norte 0 -- -- 95
2020-11-12 18:00:00 10.5 7 Norte 15 Norte 0 -- -- 92
2020-11-12 17:00:00 12.6 10 Norte 14 Norte 0 -- -- 85
2020-11-12 16:00:00 13.1 9 Nordeste 13 Nordeste 0 -- -- 81
2020-11-12 15:00:00 13 9 Nordeste 14 Nordeste 0 -- -- 81
2020-11-12 14:00:00 12.3 8 Nordeste 15 Nordeste 0 -- -- 87
2020-11-12 13:00:00 12.4 8 Nordeste 13 Este 0 -- -- 79
2020-11-12 12:00:00 12.5 7 Este 12 Este 0 -- -- 80
2020-11-12 11:00:00 10.9 2 Nordeste 5 Norte 0 -- -- 87
2020-11-12 10:00:00 8.3 0 Calma 8 Norte 0 -- -- 94
2020-11-12 09:00:00 6.5 0 Calma 4 Sur 0 -- -- 95
2020-11-12 08:00:00 6.2 0 Calma 2 Sudoeste 0 -- -- 96
2020-11-12 07:00:00 6.5 0 Calma 5 Sudoeste 0 -- -- 95
2020-11-12 06:00:00 6.9 0 Calma 7 Sudeste 0 -- -- 95
2020-11-12 05:00:00 7.8 6 Sudeste 8 Sudeste 0 -- -- 95
2020-11-12 04:00:00 7.5 0 Calma 4 Sur 0 -- -- 93
2020-11-12 03:00:00 8.1 2 Sur 6 Sur 0 -- -- 94
2020-11-12 02:00:00 8.5 4 Sudoeste 7 Sur 0 -- -- 95
2020-11-12 01:00:00 8.5 0 Calma 2 Sudoeste 0 -- -- 96
2020-11-12 00:00:00 8.2 0 Calma 5 Sur 0 -- -- 96
2020-11-11 23:00:00 8.2 3 Sudoeste 6 Sudeste 0 -- -- 95
2020-11-11 22:00:00 8.8 4 Norte 14 Sudeste 0 -- -- 95
2020-11-11 21:00:00 8.8 7 Sur 21 Sudeste 0 -- -- 96
2020-11-11 20:00:00 8.5 4 Este 8 Este 0 -- -- 96
2020-11-11 19:00:00 8.9 3 Este 11 Este 0 -- -- 95
2020-11-11 18:00:00 9.7 9 Este 13 Este 0 -- -- 92
2020-11-11 17:00:00 10.4 5 Sudeste 8 Sudeste 0 -- -- 89
2020-11-11 16:00:00 10.4 5 Nordeste 9 Norte 0 -- -- 90
2020-11-11 15:00:00 10.1 5 Nordeste 9 Norte 0 -- -- 94
2020-11-11 14:00:00 9.3 6 Norte 12 Norte 0 -- -- 98
2020-11-11 13:00:00 8.6 5 Norte 8 Norte 0 -- -- 100
2020-11-11 12:00:00 7.2 0 Calma 8 Sudeste 0 -- -- 100
2020-11-11 11:00:00 6.1 3 Sudeste 9 Sudeste 0 -- -- 99
2020-11-11 10:00:00 6 3 Este 9 Sudeste 0 -- -- 99
2020-11-11 09:00:00 6.1 4 Este 8 Este 0 -- -- 100
2020-11-11 08:00:00 5.7 3 Este 12 Este 0 -- -- 100
2020-11-11 07:00:00 6 6 Este 13 Este 0 -- -- 99
2020-11-11 06:00:00 6.2 5 Este 10 Sudeste 0 -- -- 100
2020-11-11 05:00:00 6 5 Sudeste 12 Sudeste 0 -- -- 99
2020-11-11 04:00:00 6.4 6 Este 14 Sudeste 0.2 -- -- 99
2020-11-11 03:00:00 6.4 6 Este 14 Sudeste 0 -- -- 99
2020-11-11 02:00:00 6.8 6 Sudeste 12 Este 0 -- -- 99
2020-11-11 01:00:00 7 5 Este 12 Este 0 -- -- 99
2020-11-11 00:00:00 6.8 5 Este 9 Sudeste 0 -- -- 99
2020-11-10 23:00:00 6.6 0 Calma 10 Este 0 -- -- 99
2020-11-10 22:00:00 7.1 6 Este 12 Este 0 -- -- 98
2020-11-10 21:00:00 7.1 8 Este 14 Este 0 -- -- 98
2020-11-10 20:00:00 7.5 6 Este 11 Norte 0 -- -- 97
2020-11-10 19:00:00 8.1 6 Nordeste 14 Nordeste 0 -- -- 94
2020-11-10 18:00:00 8.9 7 Norte 15 Nordeste 0 -- -- 92
2020-11-10 17:00:00 9.6 5 Norte 14 Nordeste 0 -- -- 92
2020-11-10 16:00:00 9.2 7 Nordeste 14 Nordeste 0 -- -- 96
2020-11-10 15:00:00 8.9 5 Este 9 Este 0 -- -- 97
2020-11-10 14:00:00 8.7 4 Nordeste 11 Sudeste 0 -- -- 98
2020-11-10 13:00:00 8.2 2 Este 9 Este 0 -- -- 98
2020-11-10 12:00:00 7.9 4 Sudeste 9 Este 0 -- -- 99
2020-11-10 11:00:00 7.3 2 Este 6 Este 0 -- -- 99
2020-11-10 10:00:00 6.6 0 Calma 5 Sudeste 0 -- -- 99
2020-11-10 09:00:00 5.8 0 Calma 5 Sudoeste 0 -- -- 98
2020-11-10 08:00:00 5.8 2 Oeste 5 Oeste 0 -- -- 98
2020-11-10 07:00:00 6.1 2 Oeste 4 Oeste 0 -- -- 98
2020-11-10 06:00:00 6.1 4 Oeste 9 Oeste 0 -- -- 98
2020-11-10 05:00:00 6.5 4 Oeste 9 Oeste 0 -- -- 98
2020-11-10 04:00:00 6.3 3 Noroeste 6 Noroeste 0 -- -- 97
2020-11-10 03:00:00 6.4 5 Sudoeste 6 Sudoeste 0 -- -- 97
2020-11-10 02:00:00 6.7 2 Oeste 9 Sudoeste 0 -- -- 96
2020-11-10 01:00:00 7.1 3 Sudoeste 7 Sudoeste 0 -- -- 95
2020-11-10 00:00:00 7.6 3 Sudoeste 8 Oeste 0 -- -- 95
2020-11-09 23:00:00 8.3 4 Oeste 8 Sudoeste 0 -- -- 93
2020-11-09 22:00:00 9.4 6 Oeste 9 Oeste 0 -- -- 91
2020-11-09 21:00:00 9.3 6 Sudoeste 8 Sudoeste 0 -- -- 91
2020-11-09 20:00:00 9.6 5 Sudoeste 7 Sudoeste 0 -- -- 88
2020-11-09 19:00:00 11.4 5 Oeste 8 Oeste 0 -- -- 82
2020-11-09 18:00:00 12.8 3 Oeste 11 Sudoeste 0 -- -- 76
2020-11-09 17:00:00 13.3 9 Oeste 17 Sudoeste 0 -- -- 73
2020-11-09 16:00:00 13 17 Oeste 23 Sudoeste 0 -- -- 74
2020-11-09 15:00:00 14.2 16 Oeste 26 Oeste 0 -- -- 68
2020-11-09 14:00:00 13.1 10 Oeste 22 Sudoeste 0 -- -- 77
2020-11-09 13:00:00 13 15 Sudoeste 28 Sudoeste 0 -- -- 80
2020-11-09 12:00:00 12.8 21 Sudoeste 27 Sudoeste 0 -- -- 78
2020-11-09 11:00:00 11.8 15 Sudoeste 22 Oeste 0 -- -- 86
2020-11-09 10:00:00 10.7 17 Sudoeste 22 Oeste 0 -- -- 97
2020-11-09 09:00:00 8.5 9 Sudoeste 14 Oeste 0.2 -- -- 98
2020-11-09 08:00:00 8.1 4 Sudoeste 10 Sudoeste 0 -- -- 98
2020-11-09 07:00:00 8.5 3 Sur 7 Sur 0 -- -- 98
2020-11-09 06:00:00 8.7 6 Sur 10 Sur 0 -- -- 98
2020-11-09 05:00:00 8.9 3 Sur 8 Oeste 0 -- -- 98
2020-11-09 04:00:00 8.7 2 Sur 5 Sudeste 0 -- -- 98
2020-11-09 03:00:00 9.1 4 Sudeste 7 Sudeste 0.2 -- -- 97
2020-11-09 02:00:00 9.3 3 Este 8 Sudeste 0.8 -- -- 97
2020-11-09 01:00:00 9.4 5 Noroeste 8 Este 2.2 -- -- 97
2020-11-09 00:00:00 9.5 6 Nordeste 13 Este 7.4 -- -- 97
2020-11-08 23:00:00 9.7 8 Este 15 Este 0.2 -- -- 96
2020-11-08 22:00:00 9.8 5 Sudeste 12 Sur 1 -- -- 95
2020-11-08 21:00:00 9.9 6 Sudoeste 18 Oeste 1.8 -- -- 95
2020-11-08 20:00:00 9.8 10 Oeste 24 Sudoeste 1 -- -- 95
2020-11-08 19:00:00 10 16 Sur 39 Sudoeste 3.8 -- -- 93
2020-11-08 18:00:00 10.4 15 Sudoeste 21 Sudoeste 1 -- -- 93
2020-11-08 17:00:00 10 7 Sudoeste 21 Sudoeste 0.6 -- -- 91
2020-11-08 16:00:00 10.4 18 Oeste 42 Oeste 3 -- -- 87
2020-11-08 15:00:00 13.8 26 Sudoeste 38 Sudoeste 0 -- -- 77
2020-11-08 14:00:00 13.6 27 Sudoeste 49 Sudoeste 0 -- -- 78
2020-11-08 13:00:00 14 39 Sudoeste 51 Sudoeste 0 -- -- 73
2020-11-08 12:00:00 14.3 28 Sudoeste 36 Sudoeste 0 -- -- 71
2020-11-08 11:00:00 13.6 21 Sur 30 Sudoeste 0 -- -- 73
2020-11-08 10:00:00 11.2 14 Sur 24 Sur 0 -- -- 83
2020-11-08 09:00:00 9.4 17 Sur 24 Sur 0 -- -- 88
2020-11-08 08:00:00 9.1 19 Sudoeste 28 Sudoeste 0 -- -- 90
2020-11-08 07:00:00 8.9 13 Sur 24 Sur 0 -- -- 90
2020-11-08 06:00:00 9.4 12 Sur 27 Sur 0 -- -- 90
2020-11-08 05:00:00 9.4 16 Sur 27 Sur 0 -- -- 87
2020-11-08 04:00:00 9.4 14 Sur 25 Sur 0 -- -- 85
2020-11-08 03:00:00 9.3 16 Sudeste 21 Sur 0 -- -- 85
2020-11-08 02:00:00 9.3 12 Sur 17 Sur 0 -- -- 85
2020-11-08 01:00:00 9.5 14 Sur 24 Sur 0 -- -- 86
2020-11-08 00:00:00 9 17 Sur 26 Sudoeste 0 -- -- 89
2020-11-07 23:00:00 9.6 18 Sudoeste 29 Sudoeste 0 -- -- 87
2020-11-07 22:00:00 9 9 Sur 18 Sur 0 -- -- 91
2020-11-07 21:00:00 9.3 13 Sur 29 Sudoeste 0 -- -- 90
2020-11-07 20:00:00 9.5 16 Sur 26 Sur 0 -- -- 89
2020-11-07 19:00:00 10.2 18 Sur 26 Sur 0 -- -- 85
2020-11-07 18:00:00 11.7 15 Sur 36 Sudoeste 0 -- -- 80
2020-11-07 17:00:00 13.4 22 Sudoeste 42 Sudoeste 0 -- -- 67
2020-11-07 16:00:00 13.9 21 Sudoeste 35 Oeste 0 -- -- 77
2020-11-07 15:00:00 14.1 26 Sudoeste 39 Sudoeste 0 -- -- 72
2020-11-07 14:00:00 13.6 22 Sudoeste 33 Sudoeste 0 -- -- 79
2020-11-07 13:00:00 13.3 24 Sudoeste 35 Sudoeste 0 -- -- 78
2020-11-07 12:00:00 13.1 21 Sudoeste 31 Sudoeste 0 -- -- 81
2020-11-07 11:00:00 10.8 18 Sudoeste 28 Sudoeste 0 -- -- 93
2020-11-07 10:00:00 11.1 18 Sudoeste 28 Sudoeste 0 -- -- 89
2020-11-07 09:00:00 10.2 12 Sudoeste 18 Sudoeste 0 -- -- 91
2020-11-07 08:00:00 9.8 14 Sur 19 Sudoeste 0 -- -- 91
2020-11-07 07:00:00 9.2 6 Sur 13 Sur 0 -- -- 94
2020-11-07 06:00:00 9.7 9 Sudoeste 13 Sudoeste 0 -- -- 93
2020-11-07 05:00:00 10.1 10 Sudoeste 19 Sudoeste 0.4 -- -- 92
2020-11-07 04:00:00 9.6 3 Sur 6 Sudeste 0.4 -- -- 97
2020-11-07 03:00:00 9.4 0 Calma 6 Este 0.2 -- -- 96
2020-11-07 02:00:00 9.6 4 Nordeste 7 Sudoeste 0.2 -- -- 95
2020-11-07 01:00:00 9.8 2 Este 9 Este 0 -- -- 95
2020-11-07 00:00:00 10.1 6 Este 15 Sur 0.4 -- -- 94
2020-11-06 23:00:00 10.3 11 Sur 41 Sudoeste 1.6 -- -- 92
2020-11-06 22:00:00 10.9 12 Sur 40 Sur 0.6 -- -- 91
2020-11-06 21:00:00 11.7 23 Sur 41 Sur 0 -- -- 92
2020-11-06 20:00:00 11.7 13 Sudeste 44 Sur 3.6 -- -- 89
2020-11-06 19:00:00 13.3 30 Sur 43 Sudoeste 6.4 -- -- 86
2020-11-06 18:00:00 15.6 27 Sudeste 46 Sudeste 0 -- -- 80
2020-11-06 17:00:00 16.2 35 Sudeste 51 Sudeste 0 -- -- 75
2020-11-06 16:00:00 16.6 37 Sudeste 59 Sudeste 0 -- -- 73
2020-11-06 15:00:00 16.5 34 Sudeste 58 Sudeste 0 -- -- 72
2020-11-06 14:00:00 16 41 Sudeste 73 Sudeste 0 -- -- 74
2020-11-06 13:00:00 15.2 42 Sudeste 55 Sudeste 0 -- -- 73
2020-11-06 12:00:00 13.1 21 Este 33 Este 0 -- -- 82
2020-11-06 11:00:00 12.8 14 Este 32 Sudeste 0 -- -- 80
2020-11-06 10:00:00 12.1 14 Sudeste 33 Sudeste 0 -- -- 81
2020-11-06 09:00:00 11.2 12 Este 24 Sudeste 0 -- -- 84
2020-11-06 08:00:00 11.1 16 Sudeste 28 Sudeste 0 -- -- 85
2020-11-06 07:00:00 10.8 18 Sudeste 30 Sudeste 0 -- -- 85
2020-11-06 06:00:00 11 21 Sudeste 35 Sudeste 0 -- -- 84
2020-11-06 05:00:00 11.9 24 Sudeste 38 Sudeste 0 -- -- 81
2020-11-06 04:00:00 11.9 29 Sudeste 44 Sudeste 0 -- -- 82
2020-11-06 03:00:00 10.4 20 Sudeste 29 Sudeste 0 -- -- 91
2020-11-06 02:00:00 8.7 15 Nordeste 23 Este 0 -- -- 96
2020-11-06 01:00:00 9.1 14 Este 26 Este 0 -- -- 94
2020-11-06 00:00:00 8.8 13 Este 22 Este 0 -- -- 94
2020-11-05 23:00:00 9 15 Este 22 Este 0 -- -- 93
2020-11-05 22:00:00 9.3 14 Este 26 Este 0.2 -- -- 94
2020-11-05 21:00:00 9.8 15 Este 27 Sudeste 1.8 -- -- 93
2020-11-05 20:00:00 10.7 18 Sudeste 29 Sudeste 2.4 -- -- 91
2020-11-05 19:00:00 10.9 17 Este 28 Sudeste 2.4 -- -- 90
2020-11-05 18:00:00 12.1 12 Sudeste 33 Sudeste 0.6 -- -- 84
2020-11-05 17:00:00 12.5 13 Este 36 Sudeste 0.2 -- -- 83
2020-11-05 16:00:00 12.8 21 Sudeste 41 Este 0.4 -- -- 81
2020-11-05 15:00:00 12.9 19 Sudeste 34 Sudeste 0 -- -- 79
2020-11-05 14:00:00 11.3 19 Este 31 Este 0 -- -- 85
2020-11-05 13:00:00 11.8 15 Este 28 Este 0 -- -- 83
2020-11-05 12:00:00 9.9 18 Nordeste 29 Este 0 -- -- 89
2020-11-05 11:00:00 8.4 15 Nordeste 27 Este 0 -- -- 92
2020-11-05 10:00:00 7.6 21 Nordeste 31 Este 0.8 -- -- 94
2020-11-05 09:00:00 7.4 18 Este 35 Este 0 -- -- 92
2020-11-05 08:00:00 7.1 25 Este 36 Este 0 -- -- 91
2020-11-05 07:00:00 6.8 24 Este 36 Este 0 -- -- 92
2020-11-05 06:00:00 6.6 25 Nordeste 37 Nordeste 0 -- -- 93
2020-11-05 05:00:00 6.7 26 Nordeste 40 Este 0 -- -- 92
2020-11-05 04:00:00 6.7 27 Nordeste 36 Nordeste 0 -- -- 92
2020-11-05 03:00:00 6.6 22 Nordeste 31 Este 0 -- -- 92
2020-11-05 02:00:00 6.1 17 Nordeste 25 Nordeste 0 -- -- 93
2020-11-05 01:00:00 5.7 20 Nordeste 32 Nordeste 0 -- -- 92
2020-11-05 00:00:00 5.7 22 Nordeste 35 Este 0 -- -- 91
2020-11-04 23:00:00 6 27 Nordeste 38 Este 0 -- -- 90
2020-11-04 22:00:00 5.8 25 Nordeste 37 Nordeste 0 -- -- 91
2020-11-04 21:00:00 5.9 23 Nordeste 41 Nordeste 0 -- -- 91
2020-11-04 20:00:00 5.8 24 Nordeste 35 Nordeste 0.4 -- -- 90
2020-11-04 19:00:00 6.1 24 Nordeste 34 Nordeste 0.4 -- -- 87
2020-11-04 18:00:00 6.1 23 Nordeste 31 Nordeste 0.4 -- -- 89
2020-11-04 17:00:00 6.9 19 Nordeste 36 Este 0.8 -- -- 89
2020-11-04 16:00:00 7.6 21 Nordeste 36 Nordeste 0.6 -- -- 82
2020-11-04 15:00:00 8.3 23 Nordeste 33 Este 0 -- -- 72
2020-11-04 14:00:00 8.3 23 Nordeste 41 Nordeste 0 -- -- 70
2020-11-04 13:00:00 8.3 23 Nordeste 37 Nordeste 0 -- -- 71
2020-11-04 12:00:00 7.3 24 Nordeste 34 Nordeste 0 -- -- 73
2020-11-04 11:00:00 6.8 24 Nordeste 33 Nordeste 0 -- -- 74
2020-11-04 10:00:00 4.9 24 Nordeste 32 Nordeste 0 -- -- 83
2020-11-04 09:00:00 2.9 12 Nordeste 17 Nordeste 0 -- -- 93
2020-11-04 08:00:00 1.3 10 Nordeste 14 Norte 0 -- -- 95
2020-11-04 07:00:00 1.4 8 Nordeste 13 Nordeste 0 -- -- 95
2020-11-04 06:00:00 1.6 8 Nordeste 17 Nordeste 0 -- -- 94
2020-11-04 05:00:00 2.2 11 Nordeste 14 Nordeste 0 -- -- 94
2020-11-04 04:00:00 2.2 10 Nordeste 14 Norte 0 -- -- 94
2020-11-04 03:00:00 2.4 6 Nordeste 13 Nordeste 0 -- -- 92
2020-11-04 02:00:00 3.1 9 Norte 19 Nordeste 0 -- -- 92
2020-11-04 01:00:00 3.8 13 Nordeste 17 Nordeste 0 -- -- 91
2020-11-04 00:00:00 4.4 15 Nordeste 23 Nordeste 0 -- -- 89
2020-11-03 23:00:00 4.6 10 Nordeste 13 Nordeste 0 -- -- 90
2020-11-03 22:00:00 5.7 13 Nordeste 20 Nordeste 0 -- -- 87
2020-11-03 21:00:00 6.5 13 Nordeste 17 Nordeste 0 -- -- 86
2020-11-03 20:00:00 7.3 9 Nordeste 23 Este 0 -- -- 83
2020-11-03 19:00:00 9 14 Nordeste 24 Nordeste 0 -- -- 75
2020-11-03 18:00:00 11.4 21 Nordeste 43 Nordeste 0 -- -- 63
2020-11-03 17:00:00 13.9 22 Nordeste 35 Nordeste 0 -- -- 52
2020-11-03 16:00:00 14.3 23 Nordeste 34 Nordeste 0 -- -- 52
2020-11-03 15:00:00 14.3 22 Nordeste 34 Nordeste 0 -- -- 52
2020-11-03 14:00:00 12.9 20 Nordeste 30 Nordeste 0 -- -- 67
2020-11-03 13:00:00 12.2 21 Norte 32 Norte 0 -- -- 74
2020-11-03 12:00:00 11.1 18 Nordeste 31 Norte 0 -- -- 80
2020-11-03 11:00:00 9.8 16 Norte 27 Norte 0 -- -- 83
2020-11-03 10:00:00 8.3 19 Norte 28 Norte 0 -- -- 80
2020-11-03 09:00:00 8 17 Norte 23 Norte 0 -- -- 82
2020-11-03 08:00:00 8.2 13 Norte 26 Norte 0 -- -- 87
2020-11-03 07:00:00 8.5 20 Norte 30 Norte 0 -- -- 85
2020-11-03 06:00:00 9.3 17 Norte 28 Norte 0 -- -- 81
2020-11-03 05:00:00 9.9 15 Norte 31 Norte 0 -- -- 78
2020-11-03 04:00:00 10.5 23 Norte 31 Norte 0.8 -- -- 80
2020-11-03 03:00:00 12.2 11 Noroeste 19 Oeste 0.4 -- -- 85
2020-11-03 02:00:00 13.6 7 Oeste 14 Oeste 0 -- -- 94
2020-11-03 01:00:00 13.6 5 Sudoeste 10 Oeste 0 -- -- 94
2020-11-03 00:00:00 13.9 7 Oeste 10 Sudoeste 0 -- -- 89
2020-11-02 23:00:00 13.9 6 Sudoeste 10 Sudoeste 0 -- -- 88
2020-11-02 22:00:00 13.8 5 Sudoeste 13 Sudoeste 0 -- -- 85
2020-11-02 21:00:00 13.7 3 Sudoeste 9 Sudoeste 0 -- -- 86
2020-11-02 20:00:00 14.3 5 Sudoeste 10 Sudoeste 0 -- -- 84
2020-11-02 19:00:00 14.9 8 Sudoeste 11 Sudoeste 0 -- -- 82
2020-11-02 18:00:00 16.3 6 Sudoeste 14 Sudoeste 0 -- -- 76
2020-11-02 17:00:00 17.6 10 Sudoeste 17 Oeste 0 -- -- 68
2020-11-02 16:00:00 18 12 Oeste 21 Sudoeste 0 -- -- 67
2020-11-02 15:00:00 18 13 Sudoeste 23 Sudoeste 0 -- -- 66
2020-11-02 14:00:00 18.1 16 Sudoeste 22 Sudoeste 0 -- -- 68
2020-11-02 13:00:00 16.9 13 Sudoeste 25 Sur 0 -- -- 72
2020-11-02 12:00:00 16.6 18 Sudoeste 26 Sur 0 -- -- 76
2020-11-02 11:00:00 13.6 13 Sudoeste 18 Sudoeste 0 -- -- 91
2020-11-02 10:00:00 12.7 12 Sudoeste 19 Sudoeste 0 -- -- 96
2020-11-02 09:00:00 11 5 Sudoeste 15 Sur 0 -- -- 97
2020-11-02 08:00:00 11.6 9 Sur 13 Sur 0 -- -- 97
2020-11-02 07:00:00 11.3 5 Sudoeste 13 Sudoeste 0 -- -- 97
2020-11-02 06:00:00 11.3 10 Sudoeste 14 Sudoeste 0 -- -- 95
2020-11-02 05:00:00 12 10 Sudoeste 19 Oeste 0 -- -- 93
2020-11-02 04:00:00 12.6 8 Sudoeste 19 Oeste 0 -- -- 94
2020-11-02 03:00:00 12.7 12 Oeste 22 Oeste 0 -- -- 96
2020-11-02 02:00:00 12.5 10 Sudoeste 14 Sudoeste 0 -- -- 95
2020-11-02 01:00:00 13 5 Sudoeste 18 Oeste 0 -- -- 94
2020-11-02 00:00:00 13.3 12 Sudoeste 17 Sudoeste 0 -- -- 92
2020-11-01 23:00:00 13.5 5 Sudoeste 10 Sudoeste 0 -- -- 89
2020-11-01 22:00:00 13.8 6 Sudoeste 17 Oeste 0 -- -- 86
2020-11-01 21:00:00 14.4 7 Sudoeste 12 Oeste 0 -- -- 82
2020-11-01 20:00:00 14.8 5 Sudoeste 9 Sudoeste 0 -- -- 79
2020-11-01 19:00:00 15.9 6 Oeste 10 Oeste 0 -- -- 74
2020-11-01 18:00:00 17.3 6 Oeste 13 Oeste 0 -- -- 67
2020-11-01 17:00:00 18.6 10 Oeste 17 Oeste 0 -- -- 63
2020-11-01 16:00:00 19.5 11 Oeste 20 Oeste 0 -- -- 60
2020-11-01 15:00:00 20.3 11 Oeste 23 Oeste 0 -- -- 58
2020-11-01 14:00:00 19.1 14 Sudoeste 28 Sudoeste 0 -- -- 64
2020-11-01 13:00:00 18.2 12 Sudoeste 17 Sudoeste 0 -- -- 71
2020-11-01 12:00:00 15.7 10 Sudoeste 15 Sudoeste 0 -- -- 83
2020-11-01 11:00:00 14 10 Sudoeste 13 Sur 0 -- -- 95
2020-11-01 10:00:00 11.4 4 Sur 12 Sur 0 -- -- 99
2020-11-01 09:00:00 9.6 3 Sudoeste 16 Sudoeste 0 -- -- 98
2020-11-01 08:00:00 9.2 12 Sudoeste 17 Oeste 0 -- -- 98
2020-11-01 07:00:00 9.3 12 Sudoeste 15 Sudoeste 0 -- -- 98
2020-11-01 06:00:00 9.8 6 Sudoeste 15 Sudoeste 0 -- -- 97
2020-11-01 05:00:00 9.9 4 Sudoeste 9 Sudoeste 0 -- -- 96
2020-11-01 04:00:00 9.7 3 Sudoeste 9 Sudoeste 0 -- -- 95
2020-11-01 03:00:00 10.1 4 Sudoeste 10 Sudoeste 0 -- -- 95
2020-11-01 02:00:00 10 7 Sudoeste 10 Sudoeste 0 -- -- 96
2020-11-01 01:00:00 9.9 0 Calma 6 Sur 0 -- -- 93
2020-11-01 00:00:00 9.8 0 Calma 8 Sudoeste 0 -- -- 91
2020-10-31 23:00:00 11.4 4 Sur 5 Sur 0 -- -- 90
2020-10-31 22:00:00 11 2 Sudoeste 4 Oeste 0 -- -- 90
2020-10-31 21:00:00 11.9 3 Sudoeste 4 Sudoeste 0 -- -- 85
2020-10-31 20:00:00 13 0 Calma 6 Oeste 0 -- -- 81
2020-10-31 19:00:00 14.9 0 Calma 9 Oeste 0 -- -- 76
2020-10-31 18:00:00 18.1 8 Oeste 18 Oeste 0 -- -- 63
2020-10-31 17:00:00 19.8 12 Oeste 20 Oeste 0 -- -- 56
2020-10-31 16:00:00 20 13 Oeste 21 Oeste 0 -- -- 54
2020-10-31 15:00:00 20.1 12 Oeste 20 Oeste 0 -- -- 56
2020-10-31 14:00:00 18.8 13 Oeste 23 Sudoeste 0 -- -- 60
2020-10-31 13:00:00 17.5 13 Sudoeste 22 Oeste 0 -- -- 65
2020-10-31 12:00:00 17.2 15 Sudoeste 21 Sudoeste 0 -- -- 67
2020-10-31 11:00:00 14.9 9 Sudoeste 14 Sudoeste 0 -- -- 77
2020-10-31 10:00:00 13.8 6 Sur 11 Sur 0 -- -- 80
2020-10-31 09:00:00 9.6 2 Sur 9 Sur 0 -- -- 92
2020-10-31 08:00:00 7.6 5 Sudoeste 8 Sudoeste 0 -- -- 91
2020-10-31 07:00:00 7.8 5 Sudoeste 8 Sudoeste 0 -- -- 91
2020-10-31 06:00:00 8.4 3 Sudoeste 8 Sudoeste 0 -- -- 90
2020-10-31 05:00:00 8.7 5 Sudoeste 8 Sudoeste 0 -- -- 90
2020-10-31 04:00:00 8.7 4 Sudoeste 11 Sur 0 -- -- 90
2020-10-31 03:00:00 9.1 6 Sudoeste 9 Sudoeste 0 -- -- 87
2020-10-31 02:00:00 9.7 3 Sudoeste 6 Sudoeste 0 -- -- 86
2020-10-31 01:00:00 10.2 2 Sur 6 Sudoeste 0 -- -- 87
2020-10-31 00:00:00 9.8 0 Calma 0 Calma 0 -- -- 86
2020-10-30 23:00:00 11.3 0 Calma 3 Este 0 -- -- 81
2020-10-30 22:00:00 11.8 0 Calma 4 Sur 0 -- -- 81
2020-10-30 21:00:00 12.3 2 Sur 4 Sudoeste 0 -- -- 81
2020-10-30 20:00:00 13.8 2 Sur 12 Sudeste 0 -- -- 76
2020-10-30 19:00:00 16 5 Sudeste 10 Sudeste 0 -- -- 67
2020-10-30 18:00:00 18.2 5 Este 8 Sur 0 -- -- 63
2020-10-30 17:00:00 20.3 5 Sudoeste 15 Sur 0 -- -- 52
2020-10-30 16:00:00 20 6 Sudeste 13 Sudeste 0 -- -- 55
2020-10-30 15:00:00 18.7 5 Este 14 Este 0 -- -- 64
2020-10-30 14:00:00 16.7 6 Este 11 Nordeste 0 -- -- 70
2020-10-30 13:00:00 14.8 5 Nordeste 12 Nordeste 0 -- -- 77
2020-10-30 12:00:00 13 5 Este 10 Este 0 -- -- 90
2020-10-30 11:00:00 9.9 2 Norte 4 Norte 0 -- -- 99
2020-10-30 10:00:00 6.8 0 Calma -- -- 0 -- -- 99
2020-10-30 09:00:00 4.4 0 Calma -- -- 0 -- -- 99
2020-10-30 08:00:00 3.8 0 Calma -- -- 0 -- -- 98
2020-10-30 07:00:00 3.8 0 Calma -- -- 0.2 -- -- 98
2020-10-30 06:00:00 3.9 0 Calma -- -- 0 -- -- 98
2020-10-30 05:00:00 4 0 Calma -- -- 0 -- -- 98
2020-10-30 04:00:00 4.5 0 Calma -- -- 0 -- -- 97
2020-10-30 03:00:00 5 0 Calma -- -- 0 -- -- 97
2020-10-30 02:00:00 5.2 0 Calma 2 Sur 0 -- -- 96
2020-10-30 01:00:00 5.6 0 Calma 2 Sur 0 -- -- 96
2020-10-30 00:00:00 6.2 0 Calma 0 Calma 0 -- -- 95
2020-10-29 23:00:00 6.9 0 Calma 2 Sudoeste 0 -- -- 94
2020-10-29 22:00:00 7.8 0 Calma 2 Sudoeste 0 -- -- 92
2020-10-29 21:00:00 9.2 2 Norte 5 Norte 0 -- -- 90
2020-10-29 20:00:00 10.6 0 Calma 9 Noroeste 0 -- -- 85
2020-10-29 19:00:00 12.5 6 Noroeste 9 Noroeste 0 -- -- 80
2020-10-29 18:00:00 16.6 0 Calma 8 Sur 0 -- -- 60
2020-10-29 17:00:00 17.2 5 Sur 9 Este 0 -- -- 58
2020-10-29 16:00:00 17.2 3 Este 10 Sudeste 0 -- -- 61
2020-10-29 15:00:00 16.5 4 Sudeste 14 Este 0 -- -- 61
2020-10-29 14:00:00 15.5 5 Sudeste 15 Este 0 -- -- 65
2020-10-29 13:00:00 14.3 5 Sudeste 17 Nordeste 0 -- -- 69
2020-10-29 12:00:00 12.5 5 Este 16 Sur 0 -- -- 74
2020-10-29 11:00:00 12.2 6 Este 12 Este 0 -- -- 75
2020-10-29 10:00:00 10.9 4 Sudeste 13 Sur 0 -- -- 80
2020-10-29 09:00:00 9.8 6 Sur 14 Sur 0 -- -- 89
2020-10-29 08:00:00 8.7 8 Sur 16 Sur 0 -- -- 96
2020-10-29 07:00:00 7.5 0 Calma 4 Sur 0 -- -- 97
2020-10-29 06:00:00 7 2 Sur 3 Sur 0 -- -- 98
2020-10-29 05:00:00 5.5 0 Calma 4 Sur 0 -- -- 97
2020-10-29 04:00:00 5.9 3 Oeste 8 Sur 0 -- -- 98
2020-10-29 03:00:00 6 4 Sur 6 Sur 0 -- -- 98
2020-10-29 02:00:00 6.6 4 Sur 6 Sudoeste 0 -- -- 97
2020-10-29 01:00:00 7.3 3 Sudoeste 7 Sudoeste 0 -- -- 97
2020-10-29 00:00:00 7.7 4 Sudoeste 8 Oeste 0 -- -- 96
2020-10-28 23:00:00 7.9 6 Oeste 10 Oeste 0 -- -- 96
2020-10-28 22:00:00 8.4 4 Sudoeste 7 Sudoeste 0 -- -- 95
2020-10-28 21:00:00 8.9 4 Sudoeste 6 Sudoeste 0 -- -- 95
2020-10-28 20:00:00 9.7 2 Sur 7 Oeste 0 -- -- 91
2020-10-28 19:00:00 11.6 5 Oeste 15 Sudoeste 0 -- -- 87
2020-10-28 18:00:00 13.4 12 Sudoeste 30 Oeste 0 -- -- 82
2020-10-28 17:00:00 14 17 Oeste 32 Oeste 0 -- -- 83
2020-10-28 16:00:00 15.6 21 Oeste 31 Oeste 0 -- -- 79
2020-10-28 15:00:00 15.5 19 Sudoeste 30 Sudoeste 0 -- -- 77
2020-10-28 14:00:00 14.8 19 Sudoeste 27 Sudoeste 0 -- -- 87
2020-10-28 13:00:00 13.5 18 Oeste 26 Sudoeste 0 -- -- 93
2020-10-28 12:00:00 12.6 17 Sudoeste 24 Oeste 0.2 -- -- 97
2020-10-28 11:00:00 12.2 16 Sudoeste 26 Sudoeste 0 -- -- 97
2020-10-28 10:00:00 11.5 13 Oeste 23 Sudoeste 0 -- -- 97
2020-10-28 09:00:00 11 12 Sudoeste 18 Sudoeste 0 -- -- 98
2020-10-28 08:00:00 10.7 11 Sudoeste 21 Sudoeste 0 -- -- 97
2020-10-28 07:00:00 10.5 13 Sudoeste 20 Sudoeste 0 -- -- 97
2020-10-28 06:00:00 10.5 13 Sudoeste 20 Sudoeste 0 -- -- 97
2020-10-28 05:00:00 10.6 14 Sudoeste 27 Sudoeste 0 -- -- 96
2020-10-28 04:00:00 10.3 14 Sudoeste 23 Sudoeste 0 -- -- 96
2020-10-28 03:00:00 9.8 15 Sudoeste 26 Sur 0 -- -- 94
2020-10-28 02:00:00 9.4 16 Sudoeste 32 Sudoeste 0 -- -- 93
2020-10-28 01:00:00 10 22 Sudoeste 30 Sudoeste 0 -- -- 90
2020-10-28 00:00:00 9.5 22 Sudoeste 34 Sudoeste 0 -- -- 92
2020-10-27 23:00:00 9.3 19 Sudoeste 31 Sudoeste 0 -- -- 91
2020-10-27 22:00:00 9.5 17 Sudoeste 28 Sudoeste 0 -- -- 90
2020-10-27 21:00:00 9.5 19 Sudoeste 27 Sudoeste 0 -- -- 89
2020-10-27 20:00:00 10 13 Sudoeste 23 Sudoeste 0 -- -- 90
2020-10-27 19:00:00 10.2 15 Sudoeste 30 Sudoeste 0 -- -- 89
2020-10-27 18:00:00 10.7 16 Sudoeste 29 Sudoeste 0 -- -- 85
2020-10-27 17:00:00 10.4 18 Sudoeste 32 Oeste 0.4 -- -- 87
2020-10-27 16:00:00 10.9 22 Sudoeste 34 Sudoeste 0 -- -- 81
2020-10-27 15:00:00 11 24 Sudoeste 35 Sudoeste 0 -- -- 80
2020-10-27 14:00:00 10.3 22 Sudoeste 42 Oeste 0 -- -- 83
2020-10-27 13:00:00 9.3 25 Oeste 34 Oeste 0 -- -- 91
2020-10-27 12:00:00 9.3 22 Oeste 31 Sudoeste 0 -- -- 85
2020-10-27 11:00:00 8.7 20 Sudoeste 28 Sudoeste 0 -- -- 89
2020-10-27 10:00:00 8.1 20 Sudoeste 30 Sudoeste 0 -- -- 89
2020-10-27 09:00:00 7 18 Sudoeste 26 Sudoeste 0 -- -- 91
2020-10-27 08:00:00 6.5 16 Sudoeste 26 Sudoeste 0 -- -- 92
2020-10-27 07:00:00 6.3 17 Sudoeste 26 Sudoeste 0 -- -- 93
2020-10-27 06:00:00 6 14 Sudoeste 21 Sudoeste 0 -- -- 94
2020-10-27 05:00:00 5.7 15 Sudoeste 24 Sudoeste 0 -- -- 94
2020-10-27 04:00:00 5.3 18 Sudoeste 26 Oeste 0 -- -- 93
2020-10-27 03:00:00 5.2 16 Sudoeste 21 Sudoeste 0 -- -- 94
2020-10-27 02:00:00 5.4 12 Sudoeste 22 Oeste 0 -- -- 91
2020-10-27 01:00:00 5.2 14 Sudoeste 23 Sudoeste 0 -- -- 92
2020-10-27 00:00:00 5.6 11 Sudoeste 23 Oeste 0 -- -- 88